Deering Airport Deering US
ICAO: PADE
IATA:
Category: Medium
Scheduled Services:

Elevation: 21 ft
TransAlt. 18000 ft.

Airport Communications:
ANCHORAGE CNTR:119.2
ASOS:135.5
CTAF:122.9

PADE Zoom In..

If you have problems with the map follow the link
https://www.worldairports.se/pages/airport.php?
ICAO=PADE

Runways:

(A) RW 02 length 3320 ft width 75 ft
---- / hdg 21

(B) RW 11 length 2660 ft width 75 ft
---- / hdg 110

(C) RW 20 length 3320 ft width 75 ft
---- / hdg 201

(D) RW 29 length 2660 ft width 75 ft
---- / hdg 290

Location; PADE
Day. 22 / Time. 10.53 Zulu
* Altimeter: 29.53
* Temperature: -05° c. -23°f.
* Wind from: 200° Speed 04 kn.
Dewpoint: -06° c.
Visibility: 10 Statute Miles.
Clouds: Clear (automated report).

PADE 221053Z AUTO 20004KT 10SM CLR M05/M06 A2953 RMK AO2 SLP001 T10501061 TSNO $


Wind From 200°
Speed 04 kn.

 
 
jpsmedia.com for Web Design worldairports.se 2018   terms of use